sensor_id;sensor_type;location;lat;lon;timestamp;pressure;altitude;pressure_sealevel;temperature;humidity
48390;BME280;34643;47.964;7.982;2023-06-24T00:03:13;97519.44;;;21.84;46.79
48390;BME280;34643;47.964;7.982;2023-06-24T00:08:17;97515.84;;;21.85;46.76
48390;BME280;34643;47.964;7.982;2023-06-24T00:13:19;97518.94;;;21.90;47.06
48390;BME280;34643;47.964;7.982;2023-06-24T00:18:19;97505.47;;;21.83;46.81
48390;BME280;34643;47.964;7.982;2023-06-24T00:23:21;97509.41;;;21.78;47.04
48390;BME280;34643;47.964;7.982;2023-06-24T00:28:24;97518.84;;;21.80;47.14
48390;BME280;34643;47.964;7.982;2023-06-24T00:33:24;97511.91;;;21.79;46.82
48390;BME280;34643;47.964;7.982;2023-06-24T00:38:25;97519.78;;;21.91;46.93
48390;BME280;34643;47.964;7.982;2023-06-24T00:43:25;97517.69;;;21.73;46.82
48390;BME280;34643;47.964;7.982;2023-06-24T00:48:25;97522.47;;;21.68;46.77
48390;BME280;34643;47.964;7.982;2023-06-24T00:53:26;97524.00;;;21.71;46.52
48390;BME280;34643;47.964;7.982;2023-06-24T00:58:26;97528.34;;;21.60;46.82
48390;BME280;34643;47.964;7.982;2023-06-24T01:03:27;97524.50;;;21.64;46.75
48390;BME280;34643;47.964;7.982;2023-06-24T01:08:27;97528.66;;;21.67;46.78
48390;BME280;34643;47.964;7.982;2023-06-24T01:13:28;97522.59;;;21.67;46.55
48390;BME280;34643;47.964;7.982;2023-06-24T01:18:36;97513.28;;;21.62;46.37
48390;BME280;34643;47.964;7.982;2023-06-24T01:39:22;97510.81;;;21.50;46.46
48390;BME280;34643;47.964;7.982;2023-06-24T01:44:24;97513.06;;;21.43;46.55
48390;BME280;34643;47.964;7.982;2023-06-24T01:49:27;97514.81;;;21.42;46.84
48390;BME280;34643;47.964;7.982;2023-06-24T01:54:28;97510.56;;;21.41;46.73
48390;BME280;34643;47.964;7.982;2023-06-24T01:59:30;97515.69;;;21.43;46.41
48390;BME280;34643;47.964;7.982;2023-06-24T02:04:32;97517.72;;;21.39;46.64
48390;BME280;34643;47.964;7.982;2023-06-24T02:09:33;97511.75;;;21.37;46.57
48390;BME280;34643;47.964;7.982;2023-06-24T02:14:34;97513.78;;;21.34;46.60
48390;BME280;34643;47.964;7.982;2023-06-24T02:19:36;97516.50;;;21.43;46.68
48390;BME280;34643;47.964;7.982;2023-06-24T02:24:38;97515.56;;;21.44;46.69
48390;BME280;34643;47.964;7.982;2023-06-24T02:29:39;97514.97;;;21.41;47.27
48390;BME280;34643;47.964;7.982;2023-06-24T02:34:39;97512.94;;;21.33;47.22
48390;BME280;34643;47.964;7.982;2023-06-24T02:39:40;97521.78;;;21.32;47.09
48390;BME280;34643;47.964;7.982;2023-06-24T02:44:44;97520.34;;;21.28;47.14
48390;BME280;34643;47.964;7.982;2023-06-24T02:49:44;97519.41;;;21.29;46.95
48390;BME280;34643;47.964;7.982;2023-06-24T02:54:46;97522.97;;;21.28;46.99
48390;BME280;34643;47.964;7.982;2023-06-24T03:00:10;97521.53;;;21.24;47.10
48390;BME280;34643;47.964;7.982;2023-06-24T03:05:34;97516.19;;;21.25;47.07
48390;BME280;34643;47.964;7.982;2023-06-24T03:10:36;97516.06;;;21.27;47.00
48390;BME280;34643;47.964;7.982;2023-06-24T03:15:36;97525.13;;;21.23;47.21
48390;BME280;34643;47.964;7.982;2023-06-24T03:20:37;97522.03;;;21.18;46.86
48390;BME280;34643;47.964;7.982;2023-06-24T03:25:39;97528.00;;;21.20;46.91
48390;BME280;34643;47.964;7.982;2023-06-24T03:30:39;97533.59;;;21.15;46.90
48390;BME280;34643;47.964;7.982;2023-06-24T03:35:40;97527.41;;;21.16;46.93
48390;BME280;34643;47.964;7.982;2023-06-24T03:40:45;97534.44;;;21.16;47.13
48390;BME280;34643;47.964;7.982;2023-06-24T03:45:45;97545.19;;;21.13;47.12
48390;BME280;34643;47.964;7.982;2023-06-24T03:50:46;97541.09;;;21.08;46.97
48390;BME280;34643;47.964;7.982;2023-06-24T03:55:46;97538.47;;;21.08;46.91
48390;BME280;34643;47.964;7.982;2023-06-24T04:00:47;97539.22;;;21.11;46.86
48390;BME280;34643;47.964;7.982;2023-06-24T04:05:49;97541.59;;;21.14;47.17
48390;BME280;34643;47.964;7.982;2023-06-24T04:10:58;97553.06;;;21.13;47.21
48390;BME280;34643;47.964;7.982;2023-06-24T04:16:03;97554.84;;;21.12;47.58
48390;BME280;34643;47.964;7.982;2023-06-24T04:21:03;97550.66;;;21.10;47.66
48390;BME280;34643;47.964;7.982;2023-06-24T04:26:05;97539.72;;;21.50;47.05
48390;BME280;34643;47.964;7.982;2023-06-24T04:31:05;97547.63;;;21.82;46.56
48390;BME280;34643;47.964;7.982;2023-06-24T04:36:05;97563.25;;;21.95;46.37
48390;BME280;34643;47.964;7.982;2023-06-24T04:41:06;97554.84;;;22.01;46.40
48390;BME280;34643;47.964;7.982;2023-06-24T04:46:07;97550.91;;;22.07;46.40
48390;BME280;34643;47.964;7.982;2023-06-24T04:51:07;97556.59;;;22.12;46.51
48390;BME280;34643;47.964;7.982;2023-06-24T04:56:07;97564.13;;;22.16;46.59
48390;BME280;34643;47.964;7.982;2023-06-24T05:01:07;97561.25;;;22.19;46.98
48390;BME280;34643;47.964;7.982;2023-06-24T05:06:08;97560.03;;;22.24;46.95
48390;BME280;34643;47.964;7.982;2023-06-24T05:11:08;97563.28;;;22.27;46.87
48390;BME280;34643;47.964;7.982;2023-06-24T05:16:08;97557.78;;;22.30;47.21
48390;BME280;34643;47.964;7.982;2023-06-24T05:21:08;97558.34;;;22.34;47.07
48390;BME280;34643;47.964;7.982;2023-06-24T05:26:09;97556.41;;;22.36;47.30
48390;BME280;34643;47.964;7.982;2023-06-24T05:31:11;97565.88;;;22.38;47.13
48390;BME280;34643;47.964;7.982;2023-06-24T05:36:11;97557.72;;;22.42;47.46
48390;BME280;34643;47.964;7.982;2023-06-24T05:41:11;97564.41;;;22.46;47.65
48390;BME280;34643;47.964;7.982;2023-06-24T05:46:11;97569.38;;;22.49;47.67
48390;BME280;34643;47.964;7.982;2023-06-24T05:51:12;97567.34;;;22.52;47.68
48390;BME280;34643;47.964;7.982;2023-06-24T05:56:12;97570.66;;;22.54;47.60
48390;BME280;34643;47.964;7.982;2023-06-24T06:01:12;97577.50;;;22.57;47.96
48390;BME280;34643;47.964;7.982;2023-06-24T06:06:13;97577.38;;;22.58;47.81
48390;BME280;34643;47.964;7.982;2023-06-24T06:11:13;97578.88;;;22.61;47.97
48390;BME280;34643;47.964;7.982;2023-06-24T06:16:13;97575.31;;;22.62;47.86
48390;BME280;34643;47.964;7.982;2023-06-24T06:21:14;97571.56;;;22.65;48.52
48390;BME280;34643;47.964;7.982;2023-06-24T06:26:14;97574.91;;;22.67;48.19
48390;BME280;34643;47.964;7.982;2023-06-24T06:31:14;97566.06;;;22.68;48.48
48390;BME280;34643;47.964;7.982;2023-06-24T06:36:15;97561.50;;;22.70;48.15
48390;BME280;34643;47.964;7.982;2023-06-24T06:41:15;97567.47;;;22.72;48.51
48390;BME280;34643;47.964;7.982;2023-06-24T06:46:16;97568.16;;;22.74;48.29
48390;BME280;34643;47.964;7.982;2023-06-24T06:51:16;97563.63;;;22.76;48.63
48390;BME280;34643;47.964;7.982;2023-06-24T06:56:23;97554.75;;;22.77;48.86
48390;BME280;34643;47.964;7.982;2023-06-24T07:01:26;97565.03;;;22.80;48.78
48390;BME280;34643;47.964;7.982;2023-06-24T07:06:27;97561.44;;;22.81;48.73
48390;BME280;34643;47.964;7.982;2023-06-24T07:11:27;97558.22;;;22.24;46.63
48390;BME280;34643;47.964;7.982;2023-06-24T07:16:28;97556.47;;;22.25;45.05
48390;BME280;34643;47.964;7.982;2023-06-24T07:21:28;97551.28;;;22.02;45.53
48390;BME280;34643;47.964;7.982;2023-06-24T07:26:28;97551.41;;;22.00;44.89
48390;BME280;34643;47.964;7.982;2023-06-24T07:31:30;97547.44;;;22.06;45.79
48390;BME280;34643;47.964;7.982;2023-06-24T07:36:30;97540.69;;;22.13;45.61
48390;BME280;34643;47.964;7.982;2023-06-24T07:41:31;97548.47;;;22.15;44.83
48390;BME280;34643;47.964;7.982;2023-06-24T07:46:32;97542.03;;;22.08;44.97
48390;BME280;34643;47.964;7.982;2023-06-24T07:51:32;97540.22;;;22.19;45.29
48390;BME280;34643;47.964;7.982;2023-06-24T07:56:35;97539.25;;;22.20;44.59
48390;BME280;34643;47.964;7.982;2023-06-24T08:01:35;97536.38;;;22.24;44.23
48390;BME280;34643;47.964;7.982;2023-06-24T08:06:35;97530.38;;;22.33;44.66
48390;BME280;34643;47.964;7.982;2023-06-24T08:11:36;97523.00;;;22.27;44.91
48390;BME280;34643;47.964;7.982;2023-06-24T08:16:37;97515.44;;;22.33;44.40
48390;BME280;34643;47.964;7.982;2023-06-24T08:21:37;97523.50;;;22.42;43.98
48390;BME280;34643;47.964;7.982;2023-06-24T08:26:37;97513.84;;;22.42;44.13
48390;BME280;34643;47.964;7.982;2023-06-24T08:31:38;97504.72;;;22.46;44.19
48390;BME280;34643;47.964;7.982;2023-06-24T08:36:38;97507.16;;;22.59;44.12
48390;BME280;34643;47.964;7.982;2023-06-24T08:41:38;97503.88;;;22.67;43.86
48390;BME280;34643;47.964;7.982;2023-06-24T08:46:39;97495.84;;;22.68;44.42
48390;BME280;34643;47.964;7.982;2023-06-24T08:51:40;97506.94;;;22.72;45.19
48390;BME280;34643;47.964;7.982;2023-06-24T08:56:40;97509.69;;;22.70;45.16
48390;BME280;34643;47.964;7.982;2023-06-24T09:01:41;97502.66;;;22.71;45.41
48390;BME280;34643;47.964;7.982;2023-06-24T09:06:41;97499.06;;;22.72;45.47
48390;BME280;34643;47.964;7.982;2023-06-24T09:11:41;97498.78;;;22.75;45.11
48390;BME280;34643;47.964;7.982;2023-06-24T09:16:42;97496.03;;;22.76;45.17
48390;BME280;34643;47.964;7.982;2023-06-24T09:21:51;97491.72;;;22.75;45.39
48390;BME280;34643;47.964;7.982;2023-06-24T09:26:53;97476.63;;;22.77;45.50
48390;BME280;34643;47.964;7.982;2023-06-24T09:31:56;97470.28;;;22.80;44.83
48390;BME280;34643;47.964;7.982;2023-06-24T09:36:58;97475.56;;;22.80;45.07
48390;BME280;34643;47.964;7.982;2023-06-24T09:42:01;97462.53;;;22.78;45.37
48390;BME280;34643;47.964;7.982;2023-06-24T09:47:02;97466.72;;;22.81;45.26
48390;BME280;34643;47.964;7.982;2023-06-24T09:52:02;97457.81;;;22.82;44.82
48390;BME280;34643;47.964;7.982;2023-06-24T09:57:04;97449.81;;;22.84;44.38
48390;BME280;34643;47.964;7.982;2023-06-24T10:02:05;97451.47;;;22.85;44.66
48390;BME280;34643;47.964;7.982;2023-06-24T10:07:11;97450.63;;;22.84;44.31
48390;BME280;34643;47.964;7.982;2023-06-24T10:12:11;97439.84;;;22.87;44.57
48390;BME280;34643;47.964;7.982;2023-06-24T10:17:12;97432.06;;;22.86;45.03
48390;BME280;34643;47.964;7.982;2023-06-24T10:22:12;97427.63;;;22.86;45.21
48390;BME280;34643;47.964;7.982;2023-06-24T10:27:13;97424.06;;;22.87;45.21
48390;BME280;34643;47.964;7.982;2023-06-24T10:32:15;97416.84;;;22.89;45.48
48390;BME280;34643;47.964;7.982;2023-06-24T10:47:33;97401.50;;;22.94;45.50
48390;BME280;34643;47.964;7.982;2023-06-24T10:52:37;97394.41;;;22.95;45.61
48390;BME280;34643;47.964;7.982;2023-06-24T10:57:37;97395.97;;;22.97;45.76
48390;BME280;34643;47.964;7.982;2023-06-24T11:02:37;97384.44;;;22.98;45.78
48390;BME280;34643;47.964;7.982;2023-06-24T11:07:38;97378.22;;;23.00;45.65
48390;BME280;34643;47.964;7.982;2023-06-24T11:12:39;97378.91;;;23.02;46.11
48390;BME280;34643;47.964;7.982;2023-06-24T11:17:40;97360.50;;;23.02;45.84
48390;BME280;34643;47.964;7.982;2023-06-24T11:22:41;97346.38;;;23.03;46.32
48390;BME280;34643;47.964;7.982;2023-06-24T11:27:41;97349.84;;;23.03;46.02
48390;BME280;34643;47.964;7.982;2023-06-24T11:32:42;97350.56;;;23.05;46.29
48390;BME280;34643;47.964;7.982;2023-06-24T11:37:44;97351.25;;;23.07;46.13
48390;BME280;34643;47.964;7.982;2023-06-24T11:42:45;97337.13;;;23.08;46.44
48390;BME280;34643;47.964;7.982;2023-06-24T11:47:46;97332.69;;;23.09;46.39
48390;BME280;34643;47.964;7.982;2023-06-24T11:52:48;97329.91;;;23.10;46.47
48390;BME280;34643;47.964;7.982;2023-06-24T11:58:01;97316.34;;;23.15;46.50
48390;BME280;34643;47.964;7.982;2023-06-24T12:03:05;97326.59;;;23.18;46.04
48390;BME280;34643;47.964;7.982;2023-06-24T12:08:06;97308.16;;;23.18;46.20
48390;BME280;34643;47.964;7.982;2023-06-24T12:13:07;97302.75;;;23.10;45.16
48390;BME280;34643;47.964;7.982;2023-06-24T12:18:08;97294.19;;;23.08;45.52
48390;BME280;34643;47.964;7.982;2023-06-24T12:23:09;97291.13;;;23.12;45.42
48390;BME280;34643;47.964;7.982;2023-06-24T12:28:09;97285.56;;;23.15;45.91
48390;BME280;34643;47.964;7.982;2023-06-24T12:33:09;97283.22;;;23.12;45.42
48390;BME280;34643;47.964;7.982;2023-06-24T12:38:10;97277.13;;;23.12;45.53
48390;BME280;34643;47.964;7.982;2023-06-24T12:43:10;97278.38;;;23.18;45.82
48390;BME280;34643;47.964;7.982;2023-06-24T12:48:11;97273.78;;;23.20;46.19
48390;BME280;34643;47.964;7.982;2023-06-24T12:53:11;97264.94;;;23.21;46.22
48390;BME280;34643;47.964;7.982;2023-06-24T12:58:13;97263.13;;;23.21;46.21
48390;BME280;34643;47.964;7.982;2023-06-24T13:03:14;97264.78;;;23.22;46.20
48390;BME280;34643;47.964;7.982;2023-06-24T13:08:14;97260.34;;;23.23;46.66
48390;BME280;34643;47.964;7.982;2023-06-24T13:13:15;97263.81;;;23.23;46.72
48390;BME280;34643;47.964;7.982;2023-06-24T13:18:15;97255.91;;;23.23;46.61
48390;BME280;34643;47.964;7.982;2023-06-24T13:23:16;97243.59;;;23.24;46.86
48390;BME280;34643;47.964;7.982;2023-06-24T13:28:16;97239.84;;;23.26;46.74
48390;BME280;34643;47.964;7.982;2023-06-24T13:33:16;97239.84;;;23.26;46.64
48390;BME280;34643;47.964;7.982;2023-06-24T13:38:17;97238.47;;;23.22;46.80
48390;BME280;34643;47.964;7.982;2023-06-24T13:43:17;97223.63;;;23.21;46.16
48390;BME280;34643;47.964;7.982;2023-06-24T13:48:17;97233.88;;;23.24;45.71
48390;BME280;34643;47.964;7.982;2023-06-24T13:53:18;97220.72;;;23.24;45.86
48390;BME280;34643;47.964;7.982;2023-06-24T13:58:18;97219.72;;;23.25;45.73
48390;BME280;34643;47.964;7.982;2023-06-24T14:03:19;97220.56;;;23.26;45.83
48390;BME280;34643;47.964;7.982;2023-06-24T14:08:19;97221.41;;;23.26;45.79
48390;BME280;34643;47.964;7.982;2023-06-24T14:13:19;97201.28;;;23.25;45.92
48390;BME280;34643;47.964;7.982;2023-06-24T14:18:20;97204.63;;;23.27;45.65
48390;BME280;34643;47.964;7.982;2023-06-24T14:23:20;97211.56;;;23.28;45.95
48390;BME280;34643;47.964;7.982;2023-06-24T14:28:23;97195.75;;;23.28;46.42
48390;BME280;34643;47.964;7.982;2023-06-24T14:33:27;97182.59;;;23.28;46.22
48390;BME280;34643;47.964;7.982;2023-06-24T14:38:27;97178.84;;;23.31;46.05
48390;BME280;34643;47.964;7.982;2023-06-24T14:43:27;97169.13;;;23.31;46.53
48390;BME280;34643;47.964;7.982;2023-06-24T14:48:27;97172.44;;;23.33;46.27
48390;BME280;34643;47.964;7.982;2023-06-24T14:53:28;97165.50;;;23.32;46.40
48390;BME280;34643;47.964;7.982;2023-06-24T14:58:28;97157.59;;;23.32;46.32
48390;BME280;34643;47.964;7.982;2023-06-24T15:03:28;97155.69;;;23.34;46.38
48390;BME280;34643;47.964;7.982;2023-06-24T15:08:29;97147.78;;;23.34;46.12
48390;BME280;34643;47.964;7.982;2023-06-24T15:13:29;97144.16;;;23.35;46.57
48390;BME280;34643;47.964;7.982;2023-06-24T15:18:29;97138.63;;;23.39;46.35
48390;BME280;34643;47.964;7.982;2023-06-24T15:23:29;97135.00;;;23.40;46.10
48390;BME280;34643;47.964;7.982;2023-06-24T15:28:30;97136.66;;;23.41;46.36
48390;BME280;34643;47.964;7.982;2023-06-24T15:33:30;97134.03;;;23.41;46.55
48390;BME280;34643;47.964;7.982;2023-06-24T15:38:30;97130.56;;;23.40;46.42
48390;BME280;34643;47.964;7.982;2023-06-24T15:43:31;97136.81;;;23.39;46.49
48390;BME280;34643;47.964;7.982;2023-06-24T15:48:32;97130.72;;;23.39;46.44
48390;BME280;34643;47.964;7.982;2023-06-24T15:53:33;97124.47;;;23.40;46.66
48390;BME280;34643;47.964;7.982;2023-06-24T15:58:34;97115.59;;;23.41;46.67
48390;BME280;34643;47.964;7.982;2023-06-24T16:03:35;97117.41;;;23.40;46.83
48390;BME280;34643;47.964;7.982;2023-06-24T16:08:36;97106.88;;;23.40;46.74
48390;BME280;34643;47.964;7.982;2023-06-24T16:13:36;97104.25;;;23.40;46.75
48390;BME280;34643;47.964;7.982;2023-06-24T16:18:40;97101.47;;;23.42;46.89
48390;BME280;34643;47.964;7.982;2023-06-24T16:23:40;97103.09;;;23.43;46.85
48390;BME280;34643;47.964;7.982;2023-06-24T16:28:42;97095.19;;;23.43;46.77
48390;BME280;34643;47.964;7.982;2023-06-24T16:33:42;97099.50;;;23.44;47.10
48390;BME280;34643;47.964;7.982;2023-06-24T16:38:43;97094.25;;;23.44;46.83
48390;BME280;34643;47.964;7.982;2023-06-24T16:44:28;97093.09;;;23.46;46.91
48390;BME280;34643;47.964;7.982;2023-06-24T16:49:36;97097.56;;;23.46;47.26
48390;BME280;34643;47.964;7.982;2023-06-24T16:54:48;97083.41;;;23.47;46.94
48390;BME280;34643;47.964;7.982;2023-06-24T16:59:52;97090.06;;;23.51;47.25
48390;BME280;34643;47.964;7.982;2023-06-24T17:04:52;97083.78;;;23.52;46.88
48390;BME280;34643;47.964;7.982;2023-06-24T17:09:53;97085.59;;;23.51;47.22
48390;BME280;34643;47.964;7.982;2023-06-24T17:14:54;97078.53;;;23.52;47.42
48390;BME280;34643;47.964;7.982;2023-06-24T17:19:54;97084.63;;;23.52;47.19
48390;BME280;34643;47.964;7.982;2023-06-24T17:24:54;97081.69;;;23.56;47.22
48390;BME280;34643;47.964;7.982;2023-06-24T17:29:55;97078.09;;;23.57;47.35
48390;BME280;34643;47.964;7.982;2023-06-24T17:34:56;97073.66;;;23.57;47.37
48390;BME280;34643;47.964;7.982;2023-06-24T17:39:56;97077.94;;;23.58;47.61
48390;BME280;34643;47.964;7.982;2023-06-24T17:44:57;97083.22;;;23.58;47.26
48390;BME280;34643;47.964;7.982;2023-06-24T17:49:58;97072.69;;;23.58;47.64
48390;BME280;34643;47.964;7.982;2023-06-24T17:54:58;97072.69;;;23.58;47.47
48390;BME280;34643;47.964;7.982;2023-06-24T18:00:02;97076.13;;;23.59;47.53
48390;BME280;34643;47.964;7.982;2023-06-24T18:05:04;97079.59;;;23.59;47.77
48390;BME280;34643;47.964;7.982;2023-06-24T18:10:05;97076.00;;;23.60;47.76
48390;BME280;34643;47.964;7.982;2023-06-24T18:15:06;97078.63;;;23.60;47.60
48390;BME280;34643;47.964;7.982;2023-06-24T18:20:07;97079.59;;;23.59;47.67
48390;BME280;34643;47.964;7.982;2023-06-24T18:25:07;97083.91;;;23.60;47.78
48390;BME280;34643;47.964;7.982;2023-06-24T18:30:08;97080.44;;;23.60;47.75
48390;BME280;34643;47.964;7.982;2023-06-24T18:35:09;97087.34;;;23.61;47.88
48390;BME280;34643;47.964;7.982;2023-06-24T18:40:09;97083.91;;;23.60;47.65
48390;BME280;34643;47.964;7.982;2023-06-24T18:45:11;97084.72;;;23.61;47.89
48390;BME280;34643;47.964;7.982;2023-06-24T18:50:11;97087.50;;;23.59;47.56
48390;BME280;34643;47.964;7.982;2023-06-24T18:55:12;97076.97;;;23.59;47.55
48390;BME280;34643;47.964;7.982;2023-06-24T19:00:12;97076.13;;;23.59;47.59
48390;BME280;34643;47.964;7.982;2023-06-24T19:05:12;97074.19;;;23.61;47.55
48390;BME280;34643;47.964;7.982;2023-06-24T19:10:13;97075.19;;;23.60;47.59
48390;BME280;34643;47.964;7.982;2023-06-24T19:15:13;97080.31;;;23.61;47.86
48390;BME280;34643;47.964;7.982;2023-06-24T19:20:13;97081.25;;;23.60;47.97
48390;BME280;34643;47.964;7.982;2023-06-24T19:25:16;97074.31;;;23.59;47.94
48390;BME280;34643;47.964;7.982;2023-06-24T19:30:16;97086.53;;;23.60;47.71
48390;BME280;34643;47.964;7.982;2023-06-24T19:35:17;97088.34;;;23.60;47.92
48390;BME280;34643;47.964;7.982;2023-06-24T19:40:17;97080.00;;;23.64;47.69
48390;BME280;34643;47.964;7.982;2023-06-24T19:45:19;97090.09;;;23.69;47.63
48390;BME280;34643;47.964;7.982;2023-06-24T19:50:20;97094.22;;;23.71;48.03
48390;BME280;34643;47.964;7.982;2023-06-24T19:55:20;97097.47;;;23.65;47.85
48390;BME280;34643;47.964;7.982;2023-06-24T20:00:20;97108.53;;;23.69;47.86
48390;BME280;34643;47.964;7.982;2023-06-24T20:05:21;97117.81;;;23.83;47.88
48390;BME280;34643;47.964;7.982;2023-06-24T20:10:21;97119.03;;;23.88;47.96
48390;BME280;34643;47.964;7.982;2023-06-24T20:15:21;97118.75;;;23.91;48.12
48390;BME280;34643;47.964;7.982;2023-06-24T20:20:22;97111.50;;;23.94;47.92
48390;BME280;34643;47.964;7.982;2023-06-24T20:25:22;97114.00;;;23.95;46.66
48390;BME280;34643;47.964;7.982;2023-06-24T20:30:22;97112.97;;;23.41;44.23
48390;BME280;34643;47.964;7.982;2023-06-24T20:35:23;97122.41;;;23.33;44.05
48390;BME280;34643;47.964;7.982;2023-06-24T20:40:23;97121.47;;;23.25;43.92
48390;BME280;34643;47.964;7.982;2023-06-24T20:45:23;97126.19;;;23.21;44.36
48390;BME280;34643;47.964;7.982;2023-06-24T20:50:23;97119.56;;;23.17;44.08
48390;BME280;34643;47.964;7.982;2023-06-24T20:55:24;97106.81;;;23.12;44.16
48390;BME280;34643;47.964;7.982;2023-06-24T21:00:24;97114.28;;;23.07;44.38
48390;BME280;34643;47.964;7.982;2023-06-24T21:05:25;97119.84;;;23.04;44.72
48390;BME280;34643;47.964;7.982;2023-06-24T21:10:25;97122.75;;;23.01;44.63
48390;BME280;34643;47.964;7.982;2023-06-24T21:15:25;97120.78;;;22.93;44.34
48390;BME280;34643;47.964;7.982;2023-06-24T21:20:26;97126.47;;;23.18;44.36
48390;BME280;34643;47.964;7.982;2023-06-24T21:25:26;97130.09;;;23.17;44.89
48390;BME280;34643;47.964;7.982;2023-06-24T21:30:27;97131.50;;;23.11;45.39
48390;BME280;34643;47.964;7.982;2023-06-24T21:35:27;97130.50;;;23.12;45.77
48390;BME280;34643;47.964;7.982;2023-06-24T21:40:27;97125.97;;;23.05;45.46
48390;BME280;34643;47.964;7.982;2023-06-24T21:45:27;97131.19;;;22.95;45.62
48390;BME280;34643;47.964;7.982;2023-06-24T21:50:28;97128.97;;;23.00;45.85
48390;BME280;34643;47.964;7.982;2023-06-24T21:55:28;97121.63;;;23.04;46.02
48390;BME280;34643;47.964;7.982;2023-06-24T22:00:29;97116.78;;;22.99;46.00
48390;BME280;34643;47.964;7.982;2023-06-24T22:05:29;97114.84;;;23.01;46.19
48390;BME280;34643;47.964;7.982;2023-06-24T22:10:29;97109.84;;;22.98;46.12
48390;BME280;34643;47.964;7.982;2023-06-24T22:15:30;97108.75;;;23.01;46.29
48390;BME280;34643;47.964;7.982;2023-06-24T22:20:30;97101.53;;;23.03;46.05
48390;BME280;34643;47.964;7.982;2023-06-24T22:25:30;97099.34;;;22.88;45.83
48390;BME280;34643;47.964;7.982;2023-06-24T22:30:31;97094.88;;;22.98;46.02
48390;BME280;34643;47.964;7.982;2023-06-24T22:35:31;97096.84;;;22.96;45.92
48390;BME280;34643;47.964;7.982;2023-06-24T22:40:31;97092.84;;;22.83;45.82
48390;BME280;34643;47.964;7.982;2023-06-24T22:45:32;97096.56;;;22.90;45.83
48390;BME280;34643;47.964;7.982;2023-06-24T22:50:32;97091.59;;;22.77;45.76
48390;BME280;34643;47.964;7.982;2023-06-24T22:55:32;97088.59;;;22.62;45.88
48390;BME280;34643;47.964;7.982;2023-06-24T23:00:33;97087.97;;;22.88;46.24
48390;BME280;34643;47.964;7.982;2023-06-24T23:05:33;97077.47;;;22.68;45.70
48390;BME280;34643;47.964;7.982;2023-06-24T23:10:33;97077.94;;;22.64;45.80
48390;BME280;34643;47.964;7.982;2023-06-24T23:15:34;97071.34;;;22.97;46.05
48390;BME280;34643;47.964;7.982;2023-06-24T23:20:34;97070.22;;;23.00;45.80
48390;BME280;34643;47.964;7.982;2023-06-24T23:25:35;97065.78;;;23.00;45.58
48390;BME280;34643;47.964;7.982;2023-06-24T23:30:39;97066.66;;;23.01;45.40
48390;BME280;34643;47.964;7.982;2023-06-24T23:35:51;97053.47;;;23.01;45.45
48390;BME280;34643;47.964;7.982;2023-06-24T23:40:52;97061.38;;;23.01;45.03
48390;BME280;34643;47.964;7.982;2023-06-24T23:45:52;97053.31;;;23.02;45.51
48390;BME280;34643;47.964;7.982;2023-06-24T23:50:52;97051.81;;;23.00;45.21
48390;BME280;34643;47.964;7.982;2023-06-24T23:55:53;97044.88;;;22.98;45.04
